Time;durP1;ratioP1;P1;durP2;ratioP2;P2;SDS_P1;SDS_P2;PMS_P1;PMS_P2;Temp;Humidity;BMP_temperature;BMP_pressure;BME280_temperature;BME280_humidity;BME280_pressure;Samples;Min_cycle;Max_cycle;Signal;HPM_P1;HPM_P2
2023/12/17 00:00:04;;;;;;;;;;;;;;;11.92;61.67;102780.75;4989649;28;6776;-76
2023/12/17 00:02:29;;;;;;;;;;;;;;;11.89;61.15;102769.34;4988723;28;7024;-76
2023/12/17 00:04:54;;;;;;;;;;;;;;;11.88;61.39;102767.53;4994463;28;6977;-76
2023/12/17 00:07:20;;;;;;;;;;;;;;;11.86;61.40;102761.38;4991158;28;7270;-79
2023/12/17 00:09:45;;;;;;;;;;;;;;;11.82;61.72;102755.09;4992505;28;6958;-75
2023/12/17 00:12:11;;;;;;;;;;;;;;;11.78;61.43;102747.94;4981414;28;6783;-75
2023/12/17 00:14:37;;;;;;;;;;;;;;;11.76;61.27;102752.03;4970408;28;7182;-75
2023/12/17 00:17:02;;;;;;;;;;;;;;;11.74;61.89;102759.63;4969270;28;6938;-75
2023/12/17 00:19:28;;;;;;;;;;;;;;;11.73;61.38;102770.69;4971018;28;8185;-75
2023/12/17 00:21:53;;;;;;;;;;;;;;;11.73;62.17;102774.91;4984994;28;8009;-75
2023/12/17 00:24:19;;;;;;;;;;;;;;;11.73;61.82;102783.53;4983138;28;6943;-76
2023/12/17 00:26:44;;;;;;;;;;;;;;;11.74;61.63;102780.16;4953630;28;6870;-75
2023/12/17 00:29:10;;;;;;;;;;;;;;;11.78;61.40;102778.75;4969452;28;6948;-75
2023/12/17 00:31:35;;;;;;;;;;;;;;;11.79;61.53;102777.97;4969754;28;7308;-75
2023/12/17 00:34:01;;;;;;;;;;;;;;;11.79;61.87;102768.63;4984213;28;6792;-75
2023/12/17 00:36:26;;;;;;;;;;;;;;;11.81;61.73;102779.00;4962882;28;7133;-75
2023/12/17 00:38:52;;;;;;;;;;;;;;;11.84;61.53;102783.50;4970355;28;7056;-75
2023/12/17 00:41:17;;;;;;;;;;;;;;;11.87;62.06;102787.22;4983448;28;6844;-76
2023/12/17 00:43:43;;;;;;;;;;;;;;;11.89;61.57;102790.78;4986901;28;6776;-75
2023/12/17 00:46:09;;;;;;;;;;;;;;;11.92;62.11;102790.16;4970157;28;8481;-75
2023/12/17 00:48:34;;;;;;;;;;;;;;;11.94;62.04;102786.03;4967883;28;7047;-75
2023/12/17 00:51:00;;;;;;;;;;;;;;;11.93;61.64;102789.38;4982718;28;6780;-75
2023/12/17 00:53:25;;;;;;;;;;;;;;;11.91;61.58;102781.53;4979656;28;7185;-75
2023/12/17 00:55:51;;;;;;;;;;;;;;;11.93;61.46;102776.53;4955778;28;6952;-75
2023/12/17 00:58:16;;;;;;;;;;;;;;;11.92;61.23;102775.63;4982195;28;6776;-75
2023/12/17 01:00:42;;;;;;;;;;;;;;;11.92;61.23;102772.16;4972888;28;6975;-75
2023/12/17 01:03:07;;;;;;;;;;;;;;;11.91;61.76;102767.81;4962482;28;6856;-76
2023/12/17 01:05:33;;;;;;;;;;;;;;;11.91;61.34;102765.22;4987584;28;7274;-75
2023/12/17 01:07:59;;;;;;;;;;;;;;;11.89;61.27;102764.22;4969076;28;7096;-75
2023/12/17 01:10:24;;;;;;;;;;;;;;;11.89;62.13;102771.94;4968831;28;6792;-75
2023/12/17 01:12:50;;;;;;;;;;;;;;;11.88;62.19;102772.66;4968174;28;6799;-75
2023/12/17 01:15:15;;;;;;;;;;;;;;;11.88;61.57;102770.09;4969670;28;6792;-75
2023/12/17 01:17:42;;;;;;;;;;;;;;;11.86;61.56;102772.56;4967059;28;7050;-75
2023/12/17 01:20:08;;;;;;;;;;;;;;;11.85;61.75;102775.91;4970161;28;6808;-73
2023/12/17 01:22:33;;;;;;;;;;;;;;;11.83;61.95;102763.72;4965817;28;7147;-74
2023/12/17 01:24:59;;;;;;;;;;;;;;;11.84;61.60;102768.06;4966301;28;7202;-75
2023/12/17 01:27:24;;;;;;;;;;;;;;;11.85;62.46;102772.44;4971550;28;6856;-73
2023/12/17 01:29:50;;;;;;;;;;;;;;;11.86;62.52;102775.13;4987660;28;6795;-76
2023/12/17 01:32:15;;;;;;;;;;;;;;;11.87;61.60;102781.16;4961957;28;6970;-73
2023/12/17 01:34:41;;;;;;;;;;;;;;;11.86;61.83;102788.00;4986936;28;7227;-73
2023/12/17 01:37:07;;;;;;;;;;;;;;;11.87;62.08;102786.28;4986097;28;6792;-76
2023/12/17 01:39:32;;;;;;;;;;;;;;;11.85;62.38;102787.84;4963929;28;6978;-74
2023/12/17 01:41:58;;;;;;;;;;;;;;;11.83;62.57;102786.84;4971518;28;6938;-74
2023/12/17 01:44:23;;;;;;;;;;;;;;;11.83;61.87;102791.97;4987822;28;6791;-75
2023/12/17 01:46:49;;;;;;;;;;;;;;;11.80;62.44;102796.09;4961290;28;6996;-74
2023/12/17 01:49:14;;;;;;;;;;;;;;;11.81;62.35;102799.53;4971021;28;7288;-75
2023/12/17 01:51:42;;;;;;;;;;;;;;;11.79;61.87;102796.88;4987645;28;6804;-73
2023/12/17 01:54:07;;;;;;;;;;;;;;;11.80;62.29;102797.75;4988669;28;6947;-74
2023/12/17 01:56:33;;;;;;;;;;;;;;;11.80;62.64;102792.63;4968135;28;6815;-74
2023/12/17 01:59:00;;;;;;;;;;;;;;;11.80;61.96;102790.97;4986134;28;7233;-73
2023/12/17 02:01:26;;;;;;;;;;;;;;;11.79;62.44;102788.25;4984679;28;6947;-74
2023/12/17 02:03:51;;;;;;;;;;;;;;;11.77;62.71;102788.13;4971463;28;6784;-73
2023/12/17 02:06:17;;;;;;;;;;;;;;;11.77;62.54;102787.25;4974354;28;7133;-75
2023/12/17 02:08:42;;;;;;;;;;;;;;;11.75;62.05;102788.78;4967192;28;6975;-74
2023/12/17 02:11:08;;;;;;;;;;;;;;;11.73;62.19;102780.03;4983937;28;6860;-73
2023/12/17 02:13:33;;;;;;;;;;;;;;;11.72;62.81;102783.38;4983587;28;6799;-74
2023/12/17 02:15:59;;;;;;;;;;;;;;;11.68;62.22;102774.53;4952918;28;6996;-73
2023/12/17 02:18:24;;;;;;;;;;;;;;;11.66;62.25;102771.84;4972474;28;7013;-74
2023/12/17 02:20:50;;;;;;;;;;;;;;;11.65;62.09;102771.72;4974486;28;6792;-74
2023/12/17 02:23:15;;;;;;;;;;;;;;;11.63;62.68;102769.00;4991252;28;6796;-76
2023/12/17 02:25:41;;;;;;;;;;;;;;;11.60;62.89;102767.88;4973870;28;6812;-73
2023/12/17 02:28:06;;;;;;;;;;;;;;;11.61;62.20;102777.38;4973543;28;7195;-75
2023/12/17 02:30:32;;;;;;;;;;;;;;;11.61;62.47;102785.09;4989199;28;7035;-75
2023/12/17 02:32:57;;;;;;;;;;;;;;;11.61;62.74;102785.97;4970053;28;6772;-76
2023/12/17 02:35:23;;;;;;;;;;;;;;;11.60;62.25;102781.63;4954175;28;7206;-76
2023/12/17 02:37:49;;;;;;;;;;;;;;;11.60;62.29;102781.63;4989400;28;6939;-75
2023/12/17 02:40:14;;;;;;;;;;;;;;;11.60;62.69;102786.75;4973908;28;6780;-74
2023/12/17 02:42:40;;;;;;;;;;;;;;;11.59;62.52;102787.53;4988638;28;6776;-73
2023/12/17 02:45:07;;;;;;;;;;;;;;;11.58;63.12;102789.97;4973667;28;7015;-75
2023/12/17 02:47:32;;;;;;;;;;;;;;;11.59;62.41;102784.03;4989906;28;6855;-73
2023/12/17 02:49:58;;;;;;;;;;;;;;;11.58;62.16;102784.81;4990819;28;6949;-75
2023/12/17 02:52:23;;;;;;;;;;;;;;;11.56;62.46;102779.59;4974768;28;6941;-72
2023/12/17 02:54:49;;;;;;;;;;;;;;;11.56;62.35;102778.66;4974258;28;7473;-73
2023/12/17 02:57:14;;;;;;;;;;;;;;;11.51;62.29;102774.06;4989132;28;7011;-73
2023/12/17 02:59:41;;;;;;;;;;;;;;;11.48;62.72;102768.66;4990985;28;6784;-75
2023/12/17 03:02:06;;;;;;;;;;;;;;;11.47;62.68;102766.88;4973617;28;7058;-74
2023/12/17 03:04:32;;;;;;;;;;;;;;;11.46;62.58;102754.78;4970855;28;6800;-73
2023/12/17 03:06:57;;;;;;;;;;;;;;;11.43;62.47;102753.66;4972764;28;6860;-74
2023/12/17 03:09:23;;;;;;;;;;;;;;;11.42;62.62;102765.59;4974324;28;6843;-74
2023/12/17 03:11:48;;;;;;;;;;;;;;;11.40;62.45;102759.44;4991004;28;6823;-72
2023/12/17 03:14:14;;;;;;;;;;;;;;;11.39;62.82;102761.09;4987296;28;6976;-74
2023/12/17 03:16:42;;;;;;;;;;;;;;;11.39;62.98;102761.09;4950412;28;7485;-73
2023/12/17 03:19:08;;;;;;;;;;;;;;;11.37;63.11;102764.31;4985489;28;7232;-74
2023/12/17 03:21:33;;;;;;;;;;;;;;;11.37;63.10;102766.88;4974574;28;6866;-73
2023/12/17 03:24:00;;;;;;;;;;;;;;;11.37;62.39;102760.09;4991379;28;7143;-74
2023/12/17 03:26:25;;;;;;;;;;;;;;;11.35;62.77;102750.47;4971296;28;6997;-74
2023/12/17 03:28:51;;;;;;;;;;;;;;;11.33;62.78;102744.31;4951918;28;7252;-73
2023/12/17 03:31:16;;;;;;;;;;;;;;;11.29;63.03;102739.66;4951121;28;6951;-72
2023/12/17 03:33:43;;;;;;;;;;;;;;;11.28;62.79;102737.88;4989127;28;6935;-74
2023/12/17 03:36:13;;;;;;;;;;;;;;;11.27;63.33;102746.34;4951812;28;7047;-74
2023/12/17 03:38:38;;;;;;;;;;;;;;;11.24;62.98;102758.16;4954365;28;7025;-74
2023/12/17 03:41:04;;;;;;;;;;;;;;;11.22;62.92;102748.53;4989441;28;7269;-75
2023/12/17 03:43:29;;;;;;;;;;;;;;;11.20;62.54;102745.88;4985901;28;6956;-75
2023/12/17 03:45:54;;;;;;;;;;;;;;;11.18;62.80;102744.81;4986354;28;7231;-75
2023/12/17 03:48:20;;;;;;;;;;;;;;;11.19;63.13;102743.16;4986685;28;7156;-75
2023/12/17 03:50:45;;;;;;;;;;;;;;;11.20;63.13;102751.00;4980500;28;6788;-75
2023/12/17 03:53:11;;;;;;;;;;;;;;;11.19;63.10;102744.03;4968950;28;6787;-75
2023/12/17 03:55:37;;;;;;;;;;;;;;;11.19;62.51;102740.59;4970303;28;6933;-75
2023/12/17 03:58:03;;;;;;;;;;;;;;;11.15;62.82;102742.00;4967352;28;7186;-75
2023/12/17 04:00:29;;;;;;;;;;;;;;;11.13;63.08;102742.63;4969623;28;7192;-75
2023/12/17 04:02:54;;;;;;;;;;;;;;;11.11;62.75;102745.09;4982509;28;6784;-75
2023/12/17 04:05:20;;;;;;;;;;;;;;;11.08;62.85;102735.47;4952697;28;6956;-75
2023/12/17 04:07:45;;;;;;;;;;;;;;;11.05;62.92;102729.19;4985800;28;6958;-75
2023/12/17 04:10:11;;;;;;;;;;;;;;;11.04;62.48;102729.94;4984369;28;6983;-75
2023/12/17 04:12:36;;;;;;;;;;;;;;;11.03;62.89;102723.03;4952074;28;8374;-75
2023/12/17 04:15:02;;;;;;;;;;;;;;;11.02;62.94;102718.66;4988053;28;6852;-75
2023/12/17 04:17:27;;;;;;;;;;;;;;;11.01;62.74;102721.97;4983958;28;6792;-75
2023/12/17 04:19:53;;;;;;;;;;;;;;;10.98;62.75;102713.25;4982395;28;6840;-75
2023/12/17 04:22:18;;;;;;;;;;;;;;;10.98;63.11;102712.38;4968670;28;7190;-75
2023/12/17 04:24:44;;;;;;;;;;;;;;;10.96;63.10;102709.69;4969757;28;6942;-75
2023/12/17 04:27:09;;;;;;;;;;;;;;;10.94;62.92;102711.22;4986402;28;6788;-75
2023/12/17 04:29:35;;;;;;;;;;;;;;;10.94;62.98;102710.31;4986708;28;6956;-75
2023/12/17 04:32:00;;;;;;;;;;;;;;;10.92;62.97;102711.84;4953647;28;7237;-75
2023/12/17 04:34:25;;;;;;;;;;;;;;;10.92;62.81;102715.34;4950628;28;7106;-75
2023/12/17 04:36:51;;;;;;;;;;;;;;;10.92;63.25;102720.47;4986721;28;6788;-75
2023/12/17 04:39:16;;;;;;;;;;;;;;;10.91;62.63;102725.47;4976361;28;6965;-75
2023/12/17 04:41:42;;;;;;;;;;;;;;;10.91;62.97;102725.47;4970762;28;7159;-75
2023/12/17 04:44:07;;;;;;;;;;;;;;;10.90;62.86;102715.97;4970202;28;6792;-75
2023/12/17 04:46:33;;;;;;;;;;;;;;;10.90;62.83;102719.41;4985616;28;6962;-75
2023/12/17 04:48:59;;;;;;;;;;;;;;;10.89;62.82;102717.63;4981545;28;7024;-75
2023/12/17 04:51:25;;;;;;;;;;;;;;;10.88;63.03;102722.66;4970300;28;6976;-75
2023/12/17 04:53:51;;;;;;;;;;;;;;;10.87;62.89;102721.72;4967297;28;6959;-75
2023/12/17 04:56:17;;;;;;;;;;;;;;;10.87;62.63;102716.59;4967726;28;6784;-75
2023/12/17 04:58:43;;;;;;;;;;;;;;;10.88;62.79;102715.81;4966446;28;6864;-75
2023/12/17 05:01:08;;;;;;;;;;;;;;;10.87;63.03;102716.59;4962398;28;7081;-75
2023/12/17 05:03:36;;;;;;;;;;;;;;;10.87;62.54;102710.59;4979471;28;6780;-75
2023/12/17 05:06:01;;;;;;;;;;;;;;;10.86;62.81;102707.09;4967980;28;7322;-75
2023/12/17 05:08:27;;;;;;;;;;;;;;;10.84;62.56;102708.66;4982030;28;6784;-75
2023/12/17 05:10:52;;;;;;;;;;;;;;;10.83;62.91;102706.88;4968812;28;7234;-75
2023/12/17 05:13:18;;;;;;;;;;;;;;;10.82;63.13;102705.94;4987030;28;7568;-75
2023/12/17 05:15:43;;;;;;;;;;;;;;;10.81;62.66;102703.25;4944833;28;7167;-75
2023/12/17 05:18:09;;;;;;;;;;;;;;;10.78;62.66;102709.03;4967021;28;6864;-75
2023/12/17 05:20:34;;;;;;;;;;;;;;;10.78;62.89;102709.03;4949980;28;6974;-75
2023/12/17 05:23:00;;;;;;;;;;;;;;;10.77;62.77;102707.25;4947052;28;6958;-75
2023/12/17 05:25:25;;;;;;;;;;;;;;;10.76;62.46;102707.09;4952466;28;6969;-75
2023/12/17 05:27:51;;;;;;;;;;;;;;;10.74;62.83;102714.66;4965174;28;7165;-75
2023/12/17 05:30:16;;;;;;;;;;;;;;;10.73;62.40;102709.44;4965107;28;6986;-75
2023/12/17 05:32:42;;;;;;;;;;;;;;;10.72;62.74;102711.06;4968305;28;6843;-75
2023/12/17 05:35:07;;;;;;;;;;;;;;;10.72;62.91;102708.50;4983970;28;6776;-75
2023/12/17 05:37:33;;;;;;;;;;;;;;;10.71;62.57;102706.72;4985660;28;6784;-76
2023/12/17 05:39:58;;;;;;;;;;;;;;;10.72;62.84;102707.59;4983041;28;6930;-76
2023/12/17 05:42:24;;;;;;;;;;;;;;;10.70;62.67;102710.94;4974570;28;6972;-75
2023/12/17 05:44:49;;;;;;;;;;;;;;;10.69;62.67;102706.59;4949662;28;6933;-75
2023/12/17 05:47:15;;;;;;;;;;;;;;;10.68;63.17;102704.78;4965538;28;6780;-75
2023/12/17 05:49:41;;;;;;;;;;;;;;;10.67;63.11;102710.69;4978793;28;6788;-75
2023/12/17 05:52:08;;;;;;;;;;;;;;;10.66;62.97;102692.59;4981280;28;6828;-75
2023/12/17 05:54:33;;;;;;;;;;;;;;;10.65;62.99;102698.50;4963503;28;7004;-75
2023/12/17 05:57:00;;;;;;;;;;;;;;;10.63;62.79;102694.91;4942185;28;6948;-75
2023/12/17 05:59:25;;;;;;;;;;;;;;;10.62;62.53;102694.03;4945064;28;6985;-75
2023/12/17 06:01:50;;;;;;;;;;;;;;;10.61;62.69;102699.91;4996811;23;6795;-75
2023/12/17 06:04:16;;;;;;;;;;;;;;;10.59;62.89;102696.31;5009302;23;7148;-73
2023/12/17 06:06:41;;;;;;;;;;;;;;;10.59;62.56;102695.44;5021123;23;7206;-74
2023/12/17 06:09:07;;;;;;;;;;;;;;;10.58;63.01;102688.50;4958535;28;6970;-73
2023/12/17 06:11:33;;;;;;;;;;;;;;;10.57;62.10;102692.72;4977508;28;7176;-76
2023/12/17 06:13:59;;;;;;;;;;;;;;;10.57;62.46;102697.84;4960282;28;6980;-73
2023/12/17 06:16:24;;;;;;;;;;;;;;;10.56;62.59;102693.50;4981605;28;6957;-73
2023/12/17 06:18:51;;;;;;;;;;;;;;;10.56;62.50;102698.63;4964429;28;7235;-73
2023/12/17 06:21:24;;;;;;;;;;;;;;;10.55;62.59;102699.41;4978754;28;7111;-73
2023/12/17 06:23:50;;;;;;;;;;;;;;;10.53;62.24;102700.94;4965862;28;6976;-73
2023/12/17 06:26:19;;;;;;;;;;;;;;;10.53;62.69;102711.19;4980337;28;6811;-73
2023/12/17 06:28:45;;;;;;;;;;;;;;;10.51;62.52;102703.38;4964191;28;6804;-76
2023/12/17 06:31:10;;;;;;;;;;;;;;;10.48;62.43;102707.34;4959398;28;7178;-75
2023/12/17 06:33:36;;;;;;;;;;;;;;;10.47;62.86;102700.41;4981212;28;6959;-75
2023/12/17 06:36:01;;;;;;;;;;;;;;;10.45;62.75;102707.06;4955785;28;7344;-73
2023/12/17 06:38:27;;;;;;;;;;;;;;;10.42;62.26;102703.47;4959057;28;7010;-75
2023/12/17 06:40:54;;;;;;;;;;;;;;;10.41;62.40;102708.44;4977275;28;7003;-74
2023/12/17 06:43:19;;;;;;;;;;;;;;;10.40;62.74;102697.28;4949838;28;7182;-72
2023/12/17 06:45:45;;;;;;;;;;;;;;;10.39;62.48;102703.19;4960405;28;6791;-76
2023/12/17 06:48:10;;;;;;;;;;;;;;;10.39;62.32;102702.28;4978961;28;6784;-73
2023/12/17 06:50:36;;;;;;;;;;;;;;;10.40;62.56;102707.53;4979569;28;6784;-77
2023/12/17 06:53:01;;;;;;;;;;;;;;;10.40;62.13;102702.41;4959914;28;7048;-75
2023/12/17 06:55:27;;;;;;;;;;;;;;;10.40;62.40;102698.97;4974610;28;6804;-73
2023/12/17 06:57:52;;;;;;;;;;;;;;;10.42;62.15;102708.59;4971371;28;7098;-74
2023/12/17 07:00:18;;;;;;;;;;;;;;;10.44;62.45;102710.41;4958045;28;6784;-74
2023/12/17 07:02:44;;;;;;;;;;;;;;;10.44;62.54;102710.41;4943116;28;8380;-74
2023/12/17 07:05:11;;;;;;;;;;;;;;;10.45;62.61;102705.41;4985314;28;7126;-74
2023/12/17 07:07:36;;;;;;;;;;;;;;;10.47;62.27;102705.53;4973184;28;6879;-77
2023/12/17 07:10:02;;;;;;;;;;;;;;;10.46;61.90;102702.06;4969448;28;7015;-75
2023/12/17 07:12:27;;;;;;;;;;;;;;;10.47;62.50;102698.72;4960022;28;6862;-76
2023/12/17 07:14:53;;;;;;;;;;;;;;;10.48;61.92;102705.69;4972535;28;6899;-75
2023/12/17 07:17:18;;;;;;;;;;;;;;;10.51;62.12;102717.84;4954425;28;7205;-75
2023/12/17 07:19:44;;;;;;;;;;;;;;;10.52;62.08;102717.97;5021457;23;6985;-76
2023/12/17 07:22:09;;;;;;;;;;;;;;;10.52;62.13;102715.41;5023820;28;6807;-76
2023/12/17 07:24:35;;;;;;;;;;;;;;;10.51;62.04;102710.16;5016763;28;6970;-75
2023/12/17 07:27:00;;;;;;;;;;;;;;;10.50;61.79;102711.84;5030563;28;6952;-75
2023/12/17 07:29:26;;;;;;;;;;;;;;;10.46;61.91;102701.19;5034216;28;8434;-76
2023/12/17 07:31:52;;;;;;;;;;;;;;;10.44;61.64;102710.41;5021915;28;6803;-76
2023/12/17 07:34:17;;;;;;;;;;;;;;;10.40;61.81;102707.53;5017847;28;6906;-75
2023/12/17 07:36:43;;;;;;;;;;;;;;;10.42;62.17;102718.84;5033452;28;6791;-75
2023/12/17 07:39:08;;;;;;;;;;;;;;;10.44;62.31;102715.53;5023608;28;7820;-75
2023/12/17 07:41:34;;;;;;;;;;;;;;;10.45;62.18;102715.66;5025111;28;6796;-75
2023/12/17 07:43:59;;;;;;;;;;;;;;;10.47;61.92;102719.25;5014920;28;6787;-75
2023/12/17 07:46:25;;;;;;;;;;;;;;;10.51;61.95;102725.53;5015458;28;7178;-75
2023/12/17 07:48:50;;;;;;;;;;;;;;;10.53;62.30;102721.47;5027753;28;7143;-75
2023/12/17 07:51:16;;;;;;;;;;;;;;;10.58;62.02;102724.41;5029132;28;7303;-74
2023/12/17 07:53:41;;;;;;;;;;;;;;;10.61;61.70;102725.53;5012220;28;7700;-75
2023/12/17 07:56:08;;;;;;;;;;;;;;;10.60;61.62;102721.19;5022226;28;6783;-75
2023/12/17 07:58:33;;;;;;;;;;;;;;;10.63;61.82;102707.72;5018166;28;6954;-75
2023/12/17 08:00:59;;;;;;;;;;;;;;;10.61;61.55;102719.53;5021109;28;6909;-75
2023/12/17 08:03:24;;;;;;;;;;;;;;;10.60;61.79;102713.50;5024769;28;6779;-75
2023/12/17 08:05:50;;;;;;;;;;;;;;;10.59;61.78;102721.06;5038268;28;7194;-75
2023/12/17 08:08:16;;;;;;;;;;;;;;;10.57;61.90;102713.25;5025064;28;7009;-75
2023/12/17 08:10:41;;;;;;;;;;;;;;;10.55;61.59;102714.78;5023061;28;6917;-75
2023/12/17 08:13:07;;;;;;;;;;;;;;;10.57;61.93;102715.81;5032446;28;6973;-75
2023/12/17 08:15:32;;;;;;;;;;;;;;;10.59;61.32;102716.81;5022539;28;6927;-75
2023/12/17 08:17:58;;;;;;;;;;;;;;;10.60;61.74;102713.50;5003044;28;7809;-75
2023/12/17 08:20:23;;;;;;;;;;;;;;;10.61;61.62;102717.84;5011225;28;6784;-77
2023/12/17 08:22:49;;;;;;;;;;;;;;;10.62;61.42;102722.25;4997225;28;6852;-80
2023/12/17 08:25:14;;;;;;;;;;;;;;;10.64;61.64;102725.81;4994125;28;6963;-80
2023/12/17 08:27:40;;;;;;;;;;;;;;;10.64;61.40;102722.34;4994378;28;7649;-79
2023/12/17 08:30:06;;;;;;;;;;;;;;;10.63;61.60;102729.16;4979467;28;7165;-78
2023/12/17 08:32:33;;;;;;;;;;;;;;;10.63;61.16;102723.13;5001302;28;6998;-79
2023/12/17 08:34:59;;;;;;;;;;;;;;;10.63;61.39;102723.13;4994005;28;6813;-79
2023/12/17 08:37:26;;;;;;;;;;;;;;;10.64;61.41;102725.81;4981511;28;6990;-80
2023/12/17 08:39:55;;;;;;;;;;;;;;;10.67;61.64;102733.78;5002535;28;7265;-79
2023/12/17 08:42:21;;;;;;;;;;;;;;;10.71;61.96;102727.25;5003419;28;6960;-76
2023/12/17 08:44:47;;;;;;;;;;;;;;;10.73;61.51;102725.69;4990778;28;7418;-79
2023/12/17 08:47:13;;;;;;;;;;;;;;;10.73;61.48;102725.69;4990758;28;7062;-77
2023/12/17 08:49:38;;;;;;;;;;;;;;;10.72;61.41;102726.47;4994650;28;6910;-80
2023/12/17 08:52:04;;;;;;;;;;;;;;;10.72;61.29;102728.13;4995146;28;6800;-79
2023/12/17 08:54:30;;;;;;;;;;;;;;;10.72;61.65;102730.69;4992502;28;8054;-78
2023/12/17 08:56:56;;;;;;;;;;;;;;;10.74;61.24;102731.75;5011661;28;7206;-80
2023/12/17 08:59:21;;;;;;;;;;;;;;;10.75;61.56;102729.28;4996598;28;6780;-79
2023/12/17 09:01:47;;;;;;;;;;;;;;;10.72;61.12;102721.34;4994503;28;7197;-79
2023/12/17 09:04:12;;;;;;;;;;;;;;;10.73;61.02;102725.69;4994920;28;7059;-77
2023/12/17 09:06:43;;;;;;;;;;;;;;;10.69;61.25;102721.09;4994383;28;6855;-79
2023/12/17 09:09:09;;;;;;;;;;;;;;;10.66;61.00;102721.72;4995508;28;7120;-79
2023/12/17 09:11:34;;;;;;;;;;;;;;;10.64;61.12;102725.81;4993053;28;6796;-79
2023/12/17 09:13:59;;;;;;;;;;;;;;;10.63;61.52;102720.56;4994272;28;6830;-79
2023/12/17 09:16:25;;;;;;;;;;;;;;;10.62;61.56;102723.91;4969785;28;7065;-79
2023/12/17 09:18:50;;;;;;;;;;;;;;;10.64;61.17;102727.47;4987264;28;6860;-79
2023/12/17 09:21:16;;;;;;;;;;;;;;;10.68;61.26;102732.13;4976761;28;8492;-80
2023/12/17 09:23:41;;;;;;;;;;;;;;;10.69;61.39;102728.78;4991847;28;6784;-78
2023/12/17 09:26:07;;;;;;;;;;;;;;;10.72;61.20;102730.69;4989525;28;7045;-77
2023/12/17 09:28:35;;;;;;;;;;;;;;;10.73;61.25;102724.81;5011868;23;7005;-80
2023/12/17 09:31:01;;;;;;;;;;;;;;;10.81;61.42;102723.78;4969242;28;8566;-82
2023/12/17 09:33:27;;;;;;;;;;;;;;;10.84;61.04;102729.19;4944359;28;8479;-82
2023/12/17 09:35:53;;;;;;;;;;;;;;;10.86;61.19;102730.19;4951231;28;7098;-79
2023/12/17 09:38:18;;;;;;;;;;;;;;;10.87;61.09;102724.28;4955960;28;6792;-80
2023/12/17 09:40:46;;;;;;;;;;;;;;;10.90;61.50;102729.69;4954569;28;8422;-82
2023/12/17 09:43:12;;;;;;;;;;;;;;;10.93;61.16;102726.47;4986786;28;8378;-82
2023/12/17 09:45:41;;;;;;;;;;;;;;;10.93;60.39;102735.09;4948772;23;8433;-78
2023/12/17 09:48:06;;;;;;;;;;;;;;;10.93;61.06;102721.34;4934711;28;7215;-78
2023/12/17 09:50:32;;;;;;;;;;;;;;;10.93;61.17;102729.94;4917146;28;8485;-77
2023/12/17 09:52:58;;;;;;;;;;;;;;;10.95;61.06;102719.78;4951743;23;7475;-78
2023/12/17 09:55:24;;;;;;;;;;;;;;;10.98;60.72;102723.53;5011816;23;7001;-78
2023/12/17 09:57:50;;;;;;;;;;;;;;;11.04;60.94;102710.31;4992315;28;6996;-80
2023/12/17 10:00:16;;;;;;;;;;;;;;;11.09;60.96;102709.03;4996766;28;6962;-81
2023/12/17 10:02:41;;;;;;;;;;;;;;;11.15;60.79;102706.06;4993096;28;7132;-81
2023/12/17 10:05:08;;;;;;;;;;;;;;;11.19;60.65;102718.38;4995420;28;8403;-82
2023/12/17 10:07:35;;;;;;;;;;;;;;;11.25;61.20;102715.41;4997536;23;7218;-82
2023/12/17 10:10:01;;;;;;;;;;;;;;;11.32;60.59;102716.84;4997965;28;7251;-80
2023/12/17 10:12:27;;;;;;;;;;;;;;;11.37;60.78;102710.38;4972983;23;6815;-80
2023/12/17 10:14:53;;;;;;;;;;;;;;;11.38;60.40;102714.75;4928044;28;7441;-80
2023/12/17 10:17:19;;;;;;;;;;;;;;;11.40;60.14;102702.97;4949184;28;6810;-80
2023/12/17 10:19:52;;;;;;;;;;;;;;;11.40;60.41;102697.81;4937553;28;6792;-80
2023/12/17 10:22:19;;;;;;;;;;;;;;;11.41;60.53;102696.13;4957832;28;8799;-80
2023/12/17 10:24:46;;;;;;;;;;;;;;;11.45;60.55;102696.50;4925019;28;8495;-82
2023/12/17 10:27:20;;;;;;;;;;;;;;;11.49;60.21;102693.44;4938620;28;6951;-81
2023/12/17 10:29:53;;;;;;;;;;;;;;;11.58;59.98;102676.94;4973836;23;8667;-76
2023/12/17 10:32:24;;;;;;;;;;;;;;;11.68;60.51;102669.19;4936297;28;6873;-75
2023/12/17 10:34:50;;;;;;;;;;;;;;;11.79;59.70;102667.50;4957461;28;7204;-76
2023/12/17 10:37:20;;;;;;;;;;;;;;;11.90;60.27;102669.25;4980488;28;6823;-76
2023/12/17 10:39:51;;;;;;;;;;;;;;;11.99;60.23;102661.38;4951157;28;6816;-74
2023/12/17 10:42:20;;;;;;;;;;;;;;;12.12;59.71;102660.69;4944830;28;7264;-74
2023/12/17 10:44:49;;;;;;;;;;;;;;;12.29;60.07;102656.84;4947247;28;6804;-73
2023/12/17 10:47:23;;;;;;;;;;;;;;;12.46;59.82;102646.97;4948628;28;6995;-74
2023/12/17 10:49:49;;;;;;;;;;;;;;;12.64;59.26;102656.06;4939720;28;7027;-75
2023/12/17 10:52:15;;;;;;;;;;;;;;;12.86;59.11;102637.09;4970144;28;7338;-75
2023/12/17 10:54:41;;;;;;;;;;;;;;;13.13;59.26;102637.31;4949365;28;6772;-76
2023/12/17 10:57:19;;;;;;;;;;;;;;;13.49;57.95;102633.88;4980776;28;7211;-73
2023/12/17 10:59:48;;;;;;;;;;;;;;;13.89;57.52;102631.56;4942840;28;7345;-75
2023/12/17 11:02:17;;;;;;;;;;;;;;;14.28;56.50;102624.78;4962797;28;7262;-74
2023/12/17 11:04:45;;;;;;;;;;;;;;;14.58;56.35;102614.78;4960799;28;6819;-73
2023/12/17 11:07:19;;;;;;;;;;;;;;;14.77;56.14;102610.84;4954326;28;6825;-73
2023/12/17 11:09:44;;;;;;;;;;;;;;;14.98;55.83;102605.31;4965112;28;6800;-77
2023/12/17 11:12:11;;;;;;;;;;;;;;;15.21;55.47;102603.31;4945260;28;7211;-73
2023/12/17 11:14:38;;;;;;;;;;;;;;;15.49;54.48;102599.91;4968309;28;7003;-74
2023/12/17 11:17:10;;;;;;;;;;;;;;;15.81;53.82;102594.16;4950929;28;6998;-74
2023/12/17 11:19:35;;;;;;;;;;;;;;;16.12;52.98;102589.09;4967776;28;6879;-74
2023/12/17 11:22:01;;;;;;;;;;;;;;;16.40;52.26;102590.75;4982463;23;7197;-75
2023/12/17 11:24:26;;;;;;;;;;;;;;;16.60;51.69;102586.72;4955788;28;7387;-75
2023/12/17 11:26:51;;;;;;;;;;;;;;;16.71;51.41;102583.09;4968382;28;6796;-75
2023/12/17 11:29:34;;;;;;;;;;;;;;;16.77;51.02;102583.41;4977912;28;6860;-74
2023/12/17 11:32:04;;;;;;;;;;;;;;;16.75;50.55;102587.63;4968011;28;6970;-76
2023/12/17 11:34:31;;;;;;;;;;;;;;;16.80;50.52;102585.28;4946925;28;6985;-75
2023/12/17 11:36:57;;;;;;;;;;;;;;;16.93;50.19;102580.00;4963142;28;7030;-74
2023/12/17 11:39:26;;;;;;;;;;;;;;;17.16;49.62;102572.69;4969828;28;6983;-74
2023/12/17 11:41:52;;;;;;;;;;;;;;;17.48;48.81;102567.47;4948010;28;6860;-77
2023/12/17 11:44:18;;;;;;;;;;;;;;;17.75;48.55;102567.16;4986934;28;8439;-76
2023/12/17 11:46:47;;;;;;;;;;;;;;;17.88;47.60;102564.41;4981775;28;6987;-75
2023/12/17 11:49:12;;;;;;;;;;;;;;;17.81;47.56;102559.69;4985469;28;7096;-74
2023/12/17 11:51:38;;;;;;;;;;;;;;;17.72;47.76;102560.13;4972708;28;6974;-75
2023/12/17 11:54:03;;;;;;;;;;;;;;;17.70;47.59;102563.44;4985560;28;7130;-75
2023/12/17 11:56:30;;;;;;;;;;;;;;;17.74;47.16;102560.19;4967719;28;6779;-76
2023/12/17 11:58:56;;;;;;;;;;;;;;;17.81;46.85;102549.34;4959372;28;6812;-73
2023/12/17 12:01:21;;;;;;;;;;;;;;;17.91;46.49;102556.78;4985157;28;6776;-73
2023/12/17 12:03:47;;;;;;;;;;;;;;;17.82;46.41;102555.38;4983383;28;7060;-75
2023/12/17 12:06:14;;;;;;;;;;;;;;;17.35;46.71;102559.00;4962379;28;6780;-74
2023/12/17 12:08:42;;;;;;;;;;;;;;;16.73;47.49;102560.75;4966810;28;6964;-74
2023/12/17 12:11:15;;;;;;;;;;;;;;;16.09;48.43;102556.19;4951695;28;7232;-74
2023/12/17 12:13:43;;;;;;;;;;;;;;;15.60;49.25;102552.38;4979756;28;6820;-73
2023/12/17 12:16:12;;;;;;;;;;;;;;;15.18;49.29;102551.47;4944344;28;6993;-75
2023/12/17 12:18:38;;;;;;;;;;;;;;;14.83;50.09;102548.44;4970201;28;7277;-76
2023/12/17 12:21:15;;;;;;;;;;;;;;;14.55;50.65;102546.59;4969463;28;6962;-73
2023/12/17 12:23:40;;;;;;;;;;;;;;;14.35;51.46;102547.81;4966155;28;7223;-76
2023/12/17 12:26:06;;;;;;;;;;;;;;;14.18;51.61;102555.31;4961836;28;6824;-74
2023/12/17 12:28:32;;;;;;;;;;;;;;;14.02;51.26;102541.41;4970017;28;6972;-76
2023/12/17 12:31:08;;;;;;;;;;;;;;;13.91;51.86;102555.25;4968081;28;6812;-74
2023/12/17 12:33:33;;;;;;;;;;;;;;;13.80;51.71;102536.44;4950018;28;7156;-73
2023/12/17 12:36:07;;;;;;;;;;;;;;;13.71;52.46;102538.41;4965742;28;7008;-73
2023/12/17 12:38:33;;;;;;;;;;;;;;;13.63;52.00;102536.97;4961327;28;6887;-76
2023/12/17 12:41:10;;;;;;;;;;;;;;;13.54;52.84;102534.66;4958408;28;6792;-76